Archiv-/Tagesdaten

--Timestamp---	Temp	Chill	HIndex	Humid	Dewpt	 Wind 	HiWind	WindDir	Rain 	Barom	Solar	 ET  	 UV 
--------------	----	-----	------	-----	-----	------	------	-------	-----	-----	-----	-----	----
20101025 00:00	4.4	4.4	4.4	91	3.1	0	5	225	0.0	1012.9	0	0.000	0.0
20101025 00:05	4.4	4.4	4.4	91	3.0	0	5	225	0.0	1013.0	0	0.000	0.0
20101025 00:10	4.4	4.4	4.4	91	3.0	2	3	225	0.0	1012.9	0	0.000	0.0
20101025 00:15	4.4	4.4	4.4	91	3.0	0	2	225	0.0	1012.9	0	0.000	0.0
20101025 00:20	4.4	4.4	4.4	91	3.0	0	0	-100000	0.0	1012.9	0	0.000	0.0
20101025 00:25	4.4	4.4	4.4	91	3.0	0	0	-100000	0.2	1012.9	0	0.000	0.0
20101025 00:30	4.4	4.4	4.4	92	3.2	0	0	-100000	0.0	1012.8	0	0.000	0.0
20101025 00:35	4.4	4.4	4.4	92	3.2	0	0	-100000	0.0	1012.7	0	0.000	0.0
20101025 00:40	4.4	4.4	4.4	92	3.2	0	0	-100000	0.2	1012.7	0	0.000	0.0
20101025 00:45	4.4	4.4	4.4	92	3.2	0	0	-100000	0.0	1012.7	0	0.000	0.0
20101025 00:50	4.4	4.4	4.4	92	3.2	0	0	-100000	0.0	1012.8	0	0.000	0.0
20101025 00:55	4.4	4.4	4.4	92	3.2	0	0	-100000	0.0	1012.8	0	0.000	0.0
20101025 01:00	4.4	4.4	4.4	92	3.2	0	0	-100000	0.0	1012.7	0	0.000	0.0
20101025 01:05	4.4	4.4	4.4	92	3.2	0	0	-100000	0.0	1012.8	0	0.000	0.0
20101025 01:10	4.4	4.4	4.4	92	3.2	0	0	-100000	0.0	1012.8	0	0.000	0.0
20101025 01:15	4.4	4.4	4.4	92	3.2	0	0	-100000	0.2	1012.8	0	0.000	0.0
20101025 01:20	4.4	4.4	4.4	92	3.2	0	2	225	0.0	1012.9	0	0.000	0.0
20101025 01:25	4.4	4.4	4.4	92	3.2	0	2	225	0.0	1012.9	0	0.000	0.0
20101025 01:30	4.4	4.4	4.4	92	3.2	0	0	-100000	0.0	1012.9	0	0.000	0.0
20101025 01:35	4.4	4.4	4.4	92	3.2	0	0	-100000	0.0	1012.9	0	0.000	0.0
20101025 01:40	4.4	4.4	4.4	92	3.2	0	0	-100000	0.0	1012.9	0	0.000	0.0
20101025 01:45	4.4	4.4	4.4	92	3.2	0	0	-100000	0.0	1012.9	0	0.000	0.0
20101025 01:50	4.3	4.3	4.3	92	3.1	0	0	-100000	0.2	1012.9	0	0.000	0.0
20101025 01:55	4.3	4.3	4.3	92	3.1	0	0	-100000	0.0	1012.9	0	0.000	0.0
20101025 02:00	4.4	4.4	4.4	92	3.2	0	0	-100000	0.0	1012.9	0	0.000	0.0
20101025 02:05	4.3	4.3	4.3	92	3.1	0	0	-100000	0.0	1013.0	0	0.000	0.0
20101025 02:10	4.3	4.3	4.3	92	3.1	0	0	-100000	0.0	1013.0	0	0.000	0.0
20101025 02:15	4.3	4.3	4.3	92	3.1	0	0	-100000	0.0	1013.0	0	0.000	0.0
20101025 02:20	4.3	4.3	4.3	92	3.1	0	0	-100000	0.2	1013.0	0	0.000	0.0
20101025 02:25	4.3	4.3	4.3	92	3.1	0	0	-100000	0.0	1013.1	0	0.000	0.0
20101025 02:30	4.4	4.4	4.4	92	3.2	0	0	-100000	0.0	1013.1	0	0.000	0.0
20101025 02:35	4.3	4.3	4.3	92	3.1	0	0	-100000	0.2	1013.1	0	0.000	0.0
20101025 02:40	4.3	4.3	4.3	92	3.1	0	0	-100000	0.0	1013.1	0	0.000	0.0
20101025 02:45	4.3	4.3	4.3	92	3.1	0	0	-100000	0.2	1013.2	0	0.000	0.0
20101025 02:50	4.3	4.3	4.3	92	3.1	0	0	-100000	0.0	1013.1	0	0.000	0.0
20101025 02:55	4.3	4.3	4.3	92	3.1	0	0	-100000	0.2	1013.1	0	0.000	0.0
20101025 03:00	4.3	4.3	4.3	92	3.1	0	0	-100000	0.0	1013.1	0	0.000	0.0
20101025 03:05	4.3	4.3	4.3	92	3.1	0	0	-100000	0.2	1012.9	0	0.000	0.0
20101025 03:10	4.3	4.3	4.3	93	3.2	0	0	-100000	0.2	1012.8	0	0.000	0.0
20101025 03:15	4.3	4.3	4.3	93	3.2	0	0	-100000	0.0	1012.8	0	0.000	0.0
20101025 03:20	4.3	4.3	4.3	93	3.2	0	0	-100000	0.0	1012.8	0	0.000	0.0
20101025 03:25	4.3	4.3	4.3	93	3.2	0	2	225	0.0	1012.8	0	0.000	0.0
20101025 03:30	4.3	4.3	4.3	93	3.2	0	0	-100000	0.2	1012.8	0	0.000	0.0
20101025 03:35	4.3	4.3	4.3	93	3.2	0	0	-100000	0.0	1012.8	0	0.000	0.0
20101025 03:40	4.3	4.3	4.3	93	3.2	0	0	-100000	0.0	1012.8	0	0.000	0.0
20101025 03:45	4.3	4.3	4.3	93	3.2	0	0	-100000	0.2	1012.9	0	0.000	0.0
20101025 03:50	4.3	4.3	4.3	93	3.2	0	0	-100000	0.0	1012.9	0	0.000	0.0
20101025 03:55	4.3	4.3	4.3	93	3.2	0	0	-100000	0.0	1012.9	0	0.000	0.0
20101025 04:00	4.3	4.3	4.3	93	3.2	0	0	-100000	0.0	1013.0	0	0.000	0.0
20101025 04:05	4.3	4.3	4.3	93	3.2	0	0	-100000	0.2	1013.1	0	0.000	0.0
20101025 04:10	4.3	4.3	4.3	93	3.2	0	0	-100000	0.2	1013.1	0	0.000	0.0
20101025 04:15	4.3	4.3	4.3	93	3.2	0	0	-100000	0.0	1013.1	0	0.000	0.0
20101025 04:20	4.2	4.2	4.2	93	3.2	0	0	-100000	0.0	1013.1	0	0.000	0.0
20101025 04:25	4.2	4.2	4.2	93	3.2	0	0	-100000	0.0	1013.1	0	0.000	0.0
20101025 04:30	4.2	4.2	4.2	93	3.2	0	0	-100000	0.2	1013.1	0	0.000	0.0
20101025 04:35	4.2	4.2	4.2	93	3.1	0	0	-100000	0.0	1013.0	0	0.000	0.0
20101025 04:40	4.2	4.2	4.2	93	3.1	0	2	225	0.2	1013.0	0	0.000	0.0
20101025 04:45	4.2	4.2	4.2	93	3.1	0	2	225	0.0	1013.0	0	0.000	0.0
20101025 04:50	4.2	4.2	4.2	93	3.1	0	0	-100000	0.0	1012.9	0	0.000	0.0
20101025 04:55	4.2	4.2	4.2	93	3.1	0	2	225	0.0	1013.0	0	0.000	0.0
20101025 05:00	4.2	4.2	4.2	93	3.1	0	0	-100000	0.0	1013.1	0	0.000	0.0
20101025 05:05	4.2	4.2	4.2	93	3.1	0	0	-100000	0.2	1013.1	0	0.000	0.0
20101025 05:10	4.2	4.2	4.2	93	3.1	0	0	-100000	0.0	1013.1	0	0.000	0.0
20101025 05:15	4.2	4.2	4.2	93	3.1	0	0	-100000	0.0	1013.0	0	0.000	0.0
20101025 05:20	4.2	4.2	4.2	93	3.1	0	0	-100000	0.0	1013.2	0	0.000	0.0
20101025 05:25	4.2	4.2	4.2	93	3.2	0	0	-100000	0.0	1013.2	0	0.000	0.0
20101025 05:30	4.2	4.2	4.2	93	3.2	0	0	-100000	0.2	1013.3	0	0.000	0.0
20101025 05:35	4.2	4.2	4.2	93	3.2	0	0	-100000	0.2	1013.3	0	0.000	0.0
20101025 05:40	4.2	4.2	4.2	93	3.2	0	0	-100000	0.0	1013.3	0	0.000	0.0
20101025 05:45	4.3	4.3	4.3	93	3.2	0	0	-100000	0.2	1013.4	0	0.000	0.0
20101025 05:50	4.3	4.3	4.3	93	3.2	0	0	-100000	0.0	1013.4	0	0.000	0.0
20101025 05:55	4.3	4.3	4.3	93	3.2	0	0	-100000	0.0	1013.4	0	0.000	0.0
20101025 06:00	4.2	4.2	4.2	93	3.2	0	0	-100000	0.0	1013.5	0	0.000	0.0
20101025 06:05	4.3	4.3	4.3	93	3.2	0	0	-100000	0.0	1013.5	0	0.000	0.0
20101025 06:10	4.3	4.3	4.3	93	3.2	0	0	-100000	0.2	1013.5	0	0.000	0.0
20101025 06:15	4.3	4.3	4.3	93	3.2	0	0	-100000	0.0	1013.5	0	0.000	0.0
20101025 06:20	4.3	4.3	4.3	93	3.2	0	5	225	0.0	1013.7	0	0.000	0.0
20101025 06:25	4.3	4.3	4.3	93	3.2	5	8	22	0.2	1013.8	0	0.000	0.0
20101025 06:30	4.2	2.2	4.2	93	3.2	8	18	22	0.2	1013.8	0	0.000	0.0
20101025 06:35	4.2	2.7	4.2	93	3.2	6	16	68	0.2	1013.8	0	0.000	0.0
20101025 06:40	4.2	4.2	4.2	93	3.2	5	8	68	0.2	1013.7	0	0.000	0.0
20101025 06:45	4.2	4.2	4.2	93	3.2	3	10	68	0.0	1013.8	0	0.000	0.0
20101025 06:50	4.2	2.7	4.2	93	3.2	6	11	45	0.0	1013.8	0	0.000	0.0
20101025 06:55	4.3	4.3	4.3	93	3.2	5	8	45	0.0	1013.8	0	0.000	0.0
20101025 07:00	4.3	4.3	4.3	93	3.2	5	8	45	0.0	1013.9	0	0.000	0.0
20101025 07:05	4.4	4.4	4.4	93	3.4	5	10	22	0.2	1013.9	0	0.000	0.0
20101025 07:10	4.4	2.5	4.4	93	3.4	8	13	22	0.0	1013.9	0	0.000	0.0
20101025 07:15	4.4	2.5	4.4	93	3.4	8	13	45	0.0	1013.9	0	0.000	0.0
20101025 07:20	4.5	4.5	4.5	93	3.5	5	8	22	0.0	1014.0	0	0.000	0.0
20101025 07:25	4.4	2.9	4.4	93	3.4	6	11	22	0.0	1013.9	0	0.000	0.0
20101025 07:30	4.2	2.7	4.2	93	3.2	6	11	22	0.0	1014.1	0	0.000	0.0
20101025 07:35	4.2	2.7	4.2	93	3.2	6	11	22	0.0	1014.1	0	0.000	0.0
20101025 07:40	4.2	2.2	4.2	93	3.1	8	16	22	0.0	1014.2	0	0.000	0.0
20101025 07:45	4.1	2.6	4.1	93	3.1	6	11	22	0.0	1014.4	0	0.000	0.0
20101025 07:50	4.1	2.5	4.1	93	3.0	6	10	22	0.0	1014.4	0	0.000	0.0
20101025 07:55	4.0	2.4	4.0	93	3.0	6	11	22	0.0	1014.6	0	0.000	0.0
20101025 08:00	4.0	2.0	4.0	93	3.0	8	14	22	0.0	1014.6	0	0.000	0.0
20101025 08:05	4.1	2.5	4.1	93	3.0	6	10	22	0.0	1014.8	0	0.000	0.0
20101025 08:10	4.1	2.5	4.1	93	3.0	6	11	45	0.0	1014.8	0	0.000	0.0
20101025 08:15	4.1	2.1	4.1	93	3.1	8	14	45	0.0	1014.8	3	0.000	0.0
20101025 08:20	4.1	4.1	4.1	93	3.1	5	10	45	0.0	1014.9	7	0.000	0.0
20101025 08:25	4.1	2.6	4.1	93	3.1	6	10	45	0.0	1015.1	9	0.000	0.0
20101025 08:30	4.2	2.6	4.2	93	3.1	6	11	45	0.0	1015.2	7	0.000	0.0
20101025 08:35	4.2	2.6	4.2	93	3.1	6	10	22	0.0	1015.3	6	0.000	0.0
20101025 08:40	4.2	4.2	4.2	93	3.1	5	8	45	0.0	1015.3	7	0.000	0.0
20101025 08:45	4.2	2.6	4.2	93	3.1	6	10	22	0.0	1015.5	14	0.000	0.0
20101025 08:50	4.2	2.6	4.2	93	3.1	6	10	22	0.0	1015.5	15	0.000	0.0
20101025 08:55	4.2	4.2	4.2	93	3.1	5	8	22	0.0	1015.7	13	0.000	0.0
20101025 09:00	4.2	2.6	4.2	93	3.1	6	11	22	0.0	1015.8	17	0.000	0.0
20101025 09:05	4.2	4.2	4.2	93	3.1	5	10	22	0.0	1015.9	21	0.000	0.0
20101025 09:10	4.2	2.7	4.2	93	3.2	6	10	22	0.0	1016.0	25	0.000	0.0
20101025 09:15	4.2	4.2	4.2	93	3.2	5	10	22	0.0	1016.1	30	0.000	0.0
20101025 09:20	4.2	2.7	4.2	93	3.2	6	11	22	0.0	1016.1	33	0.000	0.0
20101025 09:25	4.2	2.7	4.2	93	3.2	6	11	22	0.0	1016.1	26	0.000	0.0
20101025 09:30	4.3	4.3	4.3	93	3.2	5	11	22	0.0	1016.1	37	0.000	0.0
20101025 09:35	4.3	4.3	4.3	93	3.2	5	10	22	0.0	1016.2	42	0.000	0.0
20101025 09:40	4.2	2.2	4.2	93	3.2	8	14	22	0.0	1016.3	50	0.000	0.0
20101025 09:45	4.2	2.2	4.2	93	3.2	8	16	22	0.0	1016.3	40	0.000	0.0
20101025 09:50	4.2	2.2	4.2	93	3.2	8	11	22	0.0	1016.5	40	0.000	0.0
20101025 09:55	4.2	2.6	4.2	93	3.1	6	13	22	0.0	1016.7	36	0.000	0.0
20101025 10:00	4.1	1.7	4.1	93	3.1	10	18	22	0.0	1016.8	42	0.025	0.0
20101025 10:05	4.1	2.5	4.1	93	3.0	6	14	22	0.0	1017.0	45	0.000	0.0
20101025 10:10	4.1	2.0	4.1	93	3.0	8	14	22	0.0	1016.9	53	0.000	0.0
20101025 10:15	4.1	2.0	4.1	93	3.0	8	14	22	0.0	1016.9	40	0.000	0.0
20101025 10:20	4.1	2.0	4.1	93	3.0	8	16	22	0.0	1016.9	44	0.000	0.0
20101025 10:25	4.1	2.5	4.1	93	3.0	6	11	22	0.0	1017.0	50	0.000	0.0
20101025 10:30	4.0	2.0	4.0	93	3.0	8	16	22	0.0	1017.1	47	0.000	0.0
20101025 10:35	4.0	2.0	4.0	92	2.8	8	18	22	0.0	1017.2	49	0.000	0.0
20101025 10:40	4.0	2.0	4.0	92	2.8	8	16	22	0.0	1017.3	46	0.000	0.0
20101025 10:45	4.0	2.4	4.0	92	2.8	6	14	22	0.0	1017.4	43	0.000	0.0
20101025 10:50	3.9	1.9	3.9	92	2.8	8	16	22	0.0	1017.4	43	0.000	0.0
20101025 10:55	4.0	2.4	4.0	92	2.8	6	13	22	0.0	1017.6	36	0.000	0.0
20101025 11:00	4.0	2.0	4.0	92	2.8	8	16	22	0.0	1017.6	38	0.025	0.0
20101025 11:05	4.0	4.0	4.0	92	2.8	5	11	22	0.0	1017.7	44	0.000	0.0
20101025 11:10	4.0	4.0	4.0	92	2.8	5	10	22	0.0	1017.9	44	0.000	0.0
20101025 11:15	4.1	2.5	4.1	92	2.9	6	11	22	0.0	1017.9	44	0.000	0.0
20101025 11:20	4.0	4.0	4.0	91	2.7	5	10	22	0.0	1017.9	51	0.000	0.0
20101025 11:25	4.1	2.5	4.1	91	2.7	6	14	22	0.0	1018.0	59	0.000	0.0
20101025 11:30	4.0	2.4	4.0	91	2.7	6	14	22	0.0	1018.1	63	0.000	0.0
20101025 11:35	4.1	2.0	4.1	91	2.7	8	16	22	0.0	1018.1	64	0.000	0.0
20101025 11:40	4.1	2.5	4.1	91	2.7	6	13	22	0.0	1018.1	69	0.000	0.0
20101025 11:45	4.1	2.6	4.1	91	2.8	6	14	22	0.0	1018.2	63	0.000	0.0
20101025 11:50	4.1	2.1	4.1	90	2.6	8	16	22	0.0	1018.2	73	0.000	0.1
20101025 11:55	4.1	2.6	4.1	90	2.6	6	14	22	0.0	1018.3	68	0.000	0.0
20101025 12:00	4.1	2.1	4.1	90	2.6	8	16	22	0.0	1018.3	73	0.025	0.1
20101025 12:05	4.1	2.6	4.1	90	2.6	6	14	22	0.0	1018.3	75	0.000	0.0
20101025 12:10	4.2	2.2	4.2	90	2.7	8	11	22	0.0	1018.3	71	0.000	0.0
20101025 12:15	4.2	4.2	4.2	90	2.7	5	11	22	0.0	1018.4	65	0.000	0.0
20101025 12:20	4.2	2.2	4.2	89	2.5	8	14	45	0.0	1018.4	70	0.000	0.2
20101025 12:25	4.2	2.7	4.2	90	2.7	6	10	22	0.0	1018.4	91	0.000	0.5
20101025 12:30	4.2	2.6	4.2	89	2.5	6	11	22	0.0	1018.5	96	0.000	0.5
20101025 12:35	4.2	2.7	4.2	89	2.6	6	10	22	0.0	1018.5	100	0.000	0.6
20101025 12:40	4.3	4.3	4.3	89	2.6	5	10	22	0.0	1018.6	91	0.000	0.5
20101025 12:45	4.3	2.8	4.3	89	2.6	6	10	22	0.0	1018.5	99	0.000	0.5
20101025 12:50	4.3	2.8	4.3	89	2.7	6	10	22	0.0	1018.5	97	0.000	0.6
20101025 12:55	4.3	4.3	4.3	89	2.7	3	6	22	0.0	1018.5	95	0.000	0.5
20101025 13:00	4.4	4.4	4.4	89	2.7	5	10	22	0.0	1018.5	80	0.051	0.2
20101025 13:05	4.4	4.4	4.4	89	2.8	5	10	45	0.0	1018.5	74	0.000	0.2
20101025 13:10	4.4	3.0	4.4	88	2.6	6	11	22	0.0	1018.6	81	0.000	0.4
20101025 13:15	4.4	4.4	4.4	89	2.8	5	8	22	0.0	1018.6	60	0.000	0.0
20101025 13:20	4.5	4.5	4.5	88	2.7	5	10	0	0.0	1018.6	64	0.000	0.0
20101025 13:25	4.4	3.0	4.4	88	2.6	6	11	22	0.0	1018.7	83	0.000	0.2
20101025 13:30	4.5	4.5	4.5	88	2.7	3	8	45	0.0	1018.7	112	0.000	0.6
20101025 13:35	4.6	4.6	4.6	88	2.8	3	10	22	0.0	1018.8	116	0.000	0.7
20101025 13:40	4.6	4.6	4.6	88	2.8	5	10	0	0.0	1018.9	100	0.000	0.6
20101025 13:45	4.6	4.6	4.6	87	2.6	3	10	0	0.0	1018.9	94	0.000	0.5
20101025 13:50	4.7	4.7	4.7	87	2.7	3	6	0	0.0	1019.0	81	0.000	0.1
20101025 13:55	4.6	4.6	4.6	87	2.6	5	10	0	0.0	1019.0	85	0.000	0.3
20101025 14:00	4.6	3.1	4.6	87	2.6	6	11	22	0.0	1019.1	77	0.051	0.0
20101025 14:05	4.6	4.6	4.6	87	2.6	5	8	0	0.0	1019.1	76	0.000	0.0
20101025 14:10	4.6	4.6	4.6	87	2.6	3	6	22	0.0	1019.2	83	0.000	0.0
20101025 14:15	4.6	4.6	4.6	87	2.6	2	8	0	0.0	1019.2	83	0.000	0.0
20101025 14:20	4.6	4.6	4.6	87	2.6	3	8	0	0.0	1019.3	81	0.000	0.0
20101025 14:25	4.7	4.7	4.7	87	2.7	2	5	0	0.0	1019.3	78	0.000	0.0
20101025 14:30	4.7	4.7	4.7	87	2.7	2	10	22	0.0	1019.3	77	0.000	0.0
20101025 14:35	4.6	3.1	4.6	86	2.5	6	11	22	0.0	1019.4	79	0.000	0.0
20101025 14:40	4.6	4.6	4.6	87	2.6	3	11	22	0.0	1019.4	76	0.000	0.0
20101025 14:45	4.6	4.6	4.6	87	2.6	3	8	0	0.0	1019.4	72	0.000	0.0
20101025 14:50	4.6	4.6	4.6	87	2.6	5	11	22	0.0	1019.5	69	0.000	0.0
20101025 14:55	4.6	4.6	4.6	86	2.4	5	8	0	0.0	1019.6	68	0.000	0.0
20101025 15:00	4.5	4.5	4.5	86	2.4	5	10	22	0.0	1019.6	71	0.025	0.0
20101025 15:05	4.5	4.5	4.5	86	2.4	3	6	0	0.0	1019.6	77	0.000	0.0
20101025 15:10	4.6	4.6	4.6	87	2.6	3	8	338	0.0	1019.6	77	0.000	0.0
20101025 15:15	4.6	4.6	4.6	87	2.6	3	6	338	0.0	1019.7	77	0.000	0.0
20101025 15:20	4.6	4.6	4.6	87	2.6	2	6	338	0.0	1019.7	72	0.000	0.0
20101025 15:25	4.6	4.6	4.6	87	2.6	3	10	0	0.0	1019.8	72	0.000	0.0
20101025 15:30	4.5	4.5	4.5	87	2.5	5	10	22	0.0	1019.8	72	0.000	0.0
20101025 15:35	4.5	4.5	4.5	87	2.5	2	6	22	0.0	1019.9	70	0.000	0.0
20101025 15:40	4.5	4.5	4.5	87	2.5	2	6	0	0.0	1019.9	67	0.000	0.0
20101025 15:45	4.6	4.6	4.6	87	2.6	3	8	0	0.0	1019.9	61	0.000	0.0
20101025 15:50	4.4	4.4	4.4	86	2.3	5	11	22	0.0	1020.0	54	0.000	0.0
20101025 15:55	4.4	4.4	4.4	87	2.5	5	10	0	0.0	1020.0	51	0.000	0.0
20101025 16:00	4.4	4.4	4.4	87	2.5	3	6	0	0.0	1020.1	42	0.025	0.0
20101025 16:05	4.4	4.4	4.4	87	2.4	5	10	0	0.0	1020.2	47	0.000	0.0
20101025 16:10	4.4	4.4	4.4	86	2.3	5	10	22	0.0	1020.2	62	0.000	0.0
20101025 16:15	4.4	2.9	4.4	87	2.4	6	10	22	0.0	1020.2	70	0.000	0.0
20101025 16:20	4.4	2.4	4.4	86	2.3	8	16	22	0.0	1020.2	65	0.000	0.0
20101025 16:25	4.3	2.8	4.3	85	2.0	6	16	0	0.0	1020.3	46	0.000	0.0
20101025 16:30	4.3	2.8	4.3	85	2.0	6	14	22	0.0	1020.4	41	0.000	0.0
20101025 16:35	4.3	2.3	4.3	85	2.0	8	16	22	0.0	1020.4	37	0.000	0.0
20101025 16:40	4.3	2.8	4.3	85	2.0	6	11	22	0.0	1020.3	30	0.000	0.0
20101025 16:45	4.2	1.8	4.2	85	1.9	10	16	22	0.0	1020.4	28	0.000	0.0
20101025 16:50	4.2	2.6	4.2	85	1.9	6	14	45	0.0	1020.5	34	0.000	0.0
20101025 16:55	4.2	2.2	4.2	85	1.9	8	16	22	0.0	1020.5	41	0.000	0.0
20101025 17:00	4.1	2.1	4.1	85	1.8	8	14	22	0.0	1020.6	52	0.025	0.0
20101025 17:05	4.2	2.2	4.2	85	1.9	8	16	22	0.0	1020.5	46	0.000	0.0
20101025 17:10	4.1	2.6	4.1	85	1.8	6	14	45	0.0	1020.7	23	0.000	0.0
20101025 17:15	4.1	2.6	4.1	85	1.8	6	11	22	0.0	1020.7	15	0.000	0.0
20101025 17:20	4.1	2.0	4.1	85	1.8	8	16	22	0.0	1020.8	18	0.000	0.0
20101025 17:25	4.1	4.1	4.1	86	2.0	5	10	0	0.0	1020.9	14	0.000	0.0
20101025 17:30	4.1	2.6	4.1	86	2.0	6	10	22	0.0	1020.9	9	0.000	0.0
20101025 17:35	4.1	2.5	4.1	86	1.9	6	11	45	0.0	1021.0	6	0.000	0.0
20101025 17:40	4.0	2.0	4.0	85	1.7	8	11	45	0.0	1021.0	5	0.000	0.0
20101025 17:45	3.9	2.4	3.9	85	1.7	6	10	22	0.0	1021.1	2	0.000	0.0
20101025 17:50	3.9	2.3	3.9	85	1.6	6	11	22	0.0	1021.1	0	0.000	0.0
20101025 17:55	3.8	3.8	3.8	85	1.5	5	8	22	0.0	1021.1	0	0.000	0.0
20101025 18:00	3.8	3.8	3.8	86	1.7	5	8	22	0.0	1021.1	0	0.025	0.0
20101025 18:05	3.7	3.7	3.7	86	1.6	5	8	22	0.0	1021.1	0	0.000	0.0
20101025 18:10	3.7	3.7	3.7	86	1.5	5	13	45	0.0	1021.1	0	0.000	0.0
20101025 18:15	3.7	3.7	3.7	86	1.5	5	10	45	0.0	1021.2	0	0.000	0.0
20101025 18:20	3.7	3.7	3.7	86	1.5	5	10	45	0.0	1021.4	0	0.000	0.0
20101025 18:25	3.6	3.6	3.6	87	1.7	5	10	0	0.0	1021.4	0	0.000	0.0
20101025 18:30	3.6	3.6	3.6	87	1.7	5	11	22	0.0	1021.5	0	0.000	0.0
20101025 18:35	3.6	3.6	3.6	87	1.6	5	10	45	0.0	1021.6	0	0.000	0.0
20101025 18:40	3.6	3.6	3.6	87	1.6	5	8	22	0.0	1021.7	0	0.000	0.0
20101025 18:45	3.6	3.6	3.6	87	1.6	3	10	22	0.0	1021.8	0	0.000	0.0
20101025 18:50	3.5	3.5	3.5	87	1.5	5	8	22	0.0	1021.9	0	0.000	0.0
20101025 18:55	3.5	3.5	3.5	87	1.5	3	6	22	0.0	1022.0	0	0.000	0.0
20101025 19:00	3.4	3.4	3.4	87	1.5	5	8	22	0.0	1022.0	0	0.000	0.0
20101025 19:05	3.4	3.4	3.4	88	1.6	5	6	45	0.0	1022.2	0	0.000	0.0
20101025 19:10	3.4	3.4	3.4	88	1.6	5	8	22	0.0	1022.3	0	0.000	0.0
20101025 19:15	3.3	3.3	3.3	88	1.5	5	8	22	0.0	1022.4	0	0.000	0.0
20101025 19:20	3.3	3.3	3.3	88	1.5	3	8	22	0.0	1022.6	0	0.000	0.0
20101025 19:25	3.3	3.3	3.3	88	1.5	5	8	0	0.0	1022.6	0	0.000	0.0
20101025 19:30	3.3	3.3	3.3	88	1.5	2	5	0	0.0	1022.9	0	0.000	0.0
20101025 19:35	3.3	3.3	3.3	88	1.5	3	6	0	0.0	1022.8	0	0.000	0.0
20101025 19:40	3.3	3.3	3.3	88	1.5	0	5	0	0.0	1022.8	0	0.000	0.0
20101025 19:45	3.2	3.2	3.2	88	1.4	0	5	0	0.0	1022.9	0	0.000	0.0
20101025 19:50	3.2	3.2	3.2	88	1.4	0	5	0	0.0	1022.9	0	0.000	0.0
20101025 19:55	3.2	3.2	3.2	88	1.4	2	6	0	0.0	1022.9	0	0.000	0.0
20101025 20:00	3.2	3.2	3.2	88	1.4	2	5	0	0.0	1022.9	0	0.000	0.0
20101025 20:05	3.2	3.2	3.2	88	1.4	0	5	0	0.0	1022.8	0	0.000	0.0
20101025 20:10	3.1	3.1	3.1	88	1.3	2	6	0	0.0	1022.6	0	0.000	0.0
20101025 20:15	3.1	3.1	3.1	88	1.3	0	2	0	0.0	1022.7	0	0.000	0.0
20101025 20:20	3.1	3.1	3.1	88	1.3	0	5	0	0.0	1022.8	0	0.000	0.0
20101025 20:25	3.1	3.1	3.1	89	1.4	0	3	0	0.0	1022.9	0	0.000	0.0
20101025 20:30	3.1	3.1	3.1	89	1.4	0	2	0	0.0	1022.9	0	0.000	0.0
20101025 20:35	3.1	3.1	3.1	89	1.4	0	5	0	0.0	1023.0	0	0.000	0.0
20101025 20:40	3.0	3.0	3.0	88	1.2	2	8	0	0.0	1023.1	0	0.000	0.0
20101025 20:45	3.0	3.0	3.0	88	1.2	2	5	0	0.0	1023.1	0	0.000	0.0
20101025 20:50	3.0	3.0	3.0	88	1.2	3	5	0	0.0	1023.2	0	0.000	0.0
20101025 20:55	3.0	3.0	3.0	88	1.2	2	5	0	0.0	1023.3	0	0.000	0.0
20101025 21:00	3.0	3.0	3.0	88	1.2	2	8	0	0.0	1023.4	0	0.000	0.0
20101025 21:05	3.0	3.0	3.0	88	1.2	2	5	22	0.0	1023.5	0	0.000	0.0
20101025 21:10	2.9	2.9	2.9	88	1.2	2	5	22	0.0	1023.5	0	0.000	0.0
20101025 21:15	2.9	2.9	2.9	88	1.2	0	5	22	0.0	1023.6	0	0.000	0.0
20101025 21:20	2.9	2.9	2.9	88	1.2	0	2	22	0.0	1023.7	0	0.000	0.0
20101025 21:25	2.8	2.8	2.8	88	1.0	0	0	-100000	0.0	1023.7	0	0.000	0.0
20101025 21:30	2.8	2.8	2.8	89	1.2	0	3	22	0.0	1023.8	0	0.000	0.0
20101025 21:35	2.8	2.8	2.8	89	1.1	0	0	-100000	0.0	1023.9	0	0.000	0.0
20101025 21:40	2.8	2.8	2.8	89	1.1	0	0	-100000	0.0	1023.8	0	0.000	0.0
20101025 21:45	2.7	-100000.0	2.7	89	1.0	-100000	0	-100000	0.0	1023.9	0	0.000	0.0
20101025 21:50	2.6	2.6	2.6	89	1.0	0	0	-100000	0.0	1023.9	0	0.000	0.0
20101025 21:55	2.5	2.5	2.5	89	0.9	0	2	22	0.0	1023.9	0	0.000	0.0
20101025 22:00	2.4	2.4	2.4	89	0.8	0	0	-100000	0.0	1024.0	0	0.000	0.0
20101025 22:05	2.3	-100000.0	2.3	89	0.7	-100000	0	-100000	0.0	1024.0	0	0.000	0.0
20101025 22:10	2.2	-100000.0	2.2	89	0.6	-100000	0	-100000	0.0	1024.1	-100000	0.000	0.0
20101025 22:15	2.1	2.1	2.1	89	0.5	0	0	-100000	0.0	1024.2	0	0.000	0.0
20101025 22:20	2.0	-100000.0	2.0	89	0.4	-100000	0	-100000	0.0	1024.2	0	0.000	0.0
20101025 22:25	1.9	1.9	1.9	89	0.3	0	0	-100000	0.0	1024.3	0	0.000	0.0
20101025 22:30	1.8	1.8	1.8	90	0.4	0	2	22	0.0	1024.4	0	0.000	0.0
20101025 22:35	1.7	1.7	1.7	90	0.3	0	0	-100000	0.0	1024.5	0	0.000	0.0
20101025 22:40	1.7	1.7	1.7	90	0.3	0	2	22	0.0	1024.5	0	0.000	0.0
20101025 22:45	1.7	1.7	1.7	90	0.3	2	5	22	0.0	1024.5	0	0.000	0.0
20101025 22:50	1.8	1.8	1.8	91	0.5	0	3	22	0.0	1024.5	0	0.000	0.0
20101025 22:55	1.8	1.8	1.8	91	0.5	0	3	22	0.0	1024.5	0	0.000	0.0
20101025 23:00	1.8	1.8	1.8	91	0.5	0	6	22	0.0	1024.7	0	0.000	0.0
20101025 23:05	1.8	1.8	1.8	91	0.5	0	5	292	0.0	1024.7	0	0.000	0.0
20101025 23:10	1.8	1.8	1.8	91	0.5	0	3	338	0.0	1024.8	0	0.000	0.0
20101025 23:15	1.8	1.8	1.8	91	0.5	0	3	338	0.0	1024.9	0	0.000	0.0
20101025 23:20	1.8	1.8	1.8	91	0.5	0	3	338	0.0	1024.9	0	0.000	0.0
20101025 23:25	1.7	1.7	1.7	91	0.4	2	5	0	0.0	1025.0	0	0.000	0.0
20101025 23:30	1.7	1.7	1.7	91	0.4	2	6	0	0.0	1025.0	0	0.000	0.0
20101025 23:35	1.8	1.8	1.8	91	0.5	2	5	0	0.0	1025.0	0	0.000	0.0
20101025 23:40	1.7	1.7	1.7	91	0.4	2	5	0	0.0	1025.1	0	0.000	0.0
20101025 23:45	1.7	1.7	1.7	91	0.4	0	0	-100000	0.0	1025.1	0	0.000	0.0
20101025 23:50	1.7	1.7	1.7	91	0.4	0	0	-100000	0.0	1025.2	0	0.000	0.0
20101025 23:55	1.7	1.7	1.7	91	0.4	0	0	-100000	0.0	1025.2	0	0.000	0.0



Please note the license to use and transfer of this data:
http://creativecommons.org/licenses/by-nc-sa/3.0/deed.en

Bitte beachten sie die Lizenz zur Verwertung und Weitergabe der Daten:
http://creativecommons.org/licenses/by-nc-sa/3.0/deed.de

zurück zur Übersicht der Archivdaten (Monats und Tagesdaten)

Cookies helfen bei der Bereitstellung von Inhalten. Durch die Nutzung dieser Seiten erklärst du dich damit einverstanden, dass Cookies auf deinem Rechner gespeichert werden. Weitere Information